createdAt,value
2019-03-19T00:01:14.087Z,9.30
2019-03-19T00:03:44.659Z,9.53
2019-03-19T00:06:15.562Z,10.37
2019-03-19T00:08:48.128Z,9.50
2019-03-19T00:11:18.846Z,8.20
2019-03-19T00:13:49.701Z,8.30
2019-03-19T00:16:22.286Z,8.67
2019-03-19T00:18:53.224Z,8.53
2019-03-19T00:21:23.775Z,9.77
2019-03-19T00:23:54.558Z,9.00
2019-03-19T00:26:25.181Z,8.80
2019-03-19T00:28:57.604Z,8.77
2019-03-19T00:31:28.344Z,9.57
2019-03-19T00:33:58.898Z,9.07
2019-03-19T00:36:30.719Z,7.80
2019-03-19T00:39:01.929Z,8.03
2019-03-19T00:41:32.499Z,8.20
2019-03-19T00:44:02.996Z,12.00
2019-03-19T00:46:33.613Z,14.07
2019-03-19T00:49:06.650Z,11.20
2019-03-19T00:51:36.706Z,8.60
2019-03-19T00:54:07.487Z,7.37
2019-03-19T00:56:38.187Z,7.50
2019-03-19T00:59:08.957Z,7.37
2019-03-19T01:01:39.451Z,7.93
2019-03-19T01:04:10.185Z,7.17
2019-03-19T01:06:41.040Z,6.97
2019-03-19T01:09:11.549Z,7.00
2019-03-19T01:11:42.088Z,8.23
2019-03-19T01:14:12.718Z,8.83
2019-03-19T01:16:43.648Z,15.30
2019-03-19T01:19:16.812Z,12.73
2019-03-19T01:21:47.610Z,9.70
2019-03-19T01:24:18.383Z,7.67
2019-03-19T01:26:49.151Z,6.97
2019-03-19T01:29:21.678Z,6.70
2019-03-19T01:31:52.103Z,7.10
2019-03-19T01:34:25.828Z,8.67
2019-03-19T01:36:56.395Z,9.70
2019-03-19T01:39:27.039Z,8.03
2019-03-19T01:41:57.718Z,7.20
2019-03-19T01:44:31.086Z,7.03
2019-03-19T01:47:01.758Z,7.07
2019-03-19T01:49:32.721Z,6.93
2019-03-19T01:52:04.472Z,8.20
2019-03-19T01:54:35.086Z,7.83
2019-03-19T01:57:08.469Z,8.27
2019-03-19T01:59:40.969Z,7.60
2019-03-19T02:02:11.647Z,8.83
2019-03-19T02:04:42.428Z,8.40
2019-03-19T02:07:13.136Z,7.53
2019-03-19T02:09:43.982Z,8.67
2019-03-19T02:12:14.731Z,8.07
2019-03-19T02:14:45.494Z,7.73
2019-03-19T02:17:19.475Z,7.47
2019-03-19T02:19:50.183Z,7.13
2019-03-19T02:22:20.951Z,6.77
2019-03-19T02:24:54.148Z,6.50
2019-03-19T02:27:24.643Z,5.93
2019-03-19T02:29:59.360Z,5.60
2019-03-19T02:32:30.178Z,6.10
2019-03-19T02:35:01.043Z,6.30
2019-03-19T02:37:31.764Z,11.20
2019-03-19T02:40:02.301Z,6.37
2019-03-19T02:42:33.122Z,5.53
2019-03-19T02:45:03.843Z,4.73
2019-03-19T02:47:34.552Z,5.20
2019-03-19T02:50:06.054Z,4.83
2019-03-19T02:52:38.432Z,4.57
2019-03-19T02:55:12.790Z,4.23
2019-03-19T02:57:43.382Z,3.90
2019-03-19T03:00:16.944Z,4.40
2019-03-19T03:02:47.976Z,4.33
2019-03-19T03:05:19.013Z,4.43
2019-03-19T03:07:50.910Z,4.50
2019-03-19T03:10:21.715Z,3.90
2019-03-19T03:12:52.382Z,4.70
2019-03-19T03:15:23.056Z,4.50
2019-03-19T03:17:54.973Z,4.30
2019-03-19T03:20:25.835Z,4.60
2019-03-19T03:22:56.531Z,4.27
2019-03-19T03:25:27.093Z,3.87
2019-03-19T03:27:57.837Z,4.57
2019-03-19T03:30:29.805Z,3.67
2019-03-19T03:33:00.750Z,4.30
2019-03-19T03:35:31.354Z,4.80
2019-03-19T03:38:04.979Z,4.13
2019-03-19T03:40:37.792Z,4.30
2019-03-19T03:43:08.379Z,4.10
2019-03-19T03:45:39.063Z,3.57
2019-03-19T03:48:09.740Z,3.43
2019-03-19T03:50:40.592Z,3.20
2019-03-19T03:53:11.145Z,2.70
2019-03-19T03:55:42.116Z,3.30
2019-03-19T03:58:14.671Z,3.20
2019-03-19T04:00:48.072Z,3.37
2019-03-19T04:03:19.877Z,4.37
2019-03-19T04:05:51.802Z,4.33
2019-03-19T04:08:22.432Z,4.53
2019-03-19T04:10:55.490Z,4.60
2019-03-19T04:13:27.884Z,4.53
2019-03-19T04:15:58.442Z,4.80
2019-03-19T04:18:28.842Z,4.53
2019-03-19T04:20:59.299Z,7.73
2019-03-19T04:23:30.087Z,8.10
2019-03-19T04:26:00.555Z,6.60
2019-03-19T04:28:31.337Z,7.03
2019-03-19T04:31:01.948Z,6.60
2019-03-19T04:33:32.437Z,5.23
2019-03-19T04:36:02.964Z,5.37
2019-03-19T04:38:34.852Z,4.73
2019-03-19T04:41:05.447Z,5.03
2019-03-19T04:43:35.962Z,5.13
2019-03-19T04:46:06.654Z,5.40
2019-03-19T04:48:37.200Z,6.90
2019-03-19T04:51:11.173Z,5.27
2019-03-19T04:53:43.030Z,5.00
2019-03-19T04:56:13.411Z,5.43
2019-03-19T04:58:44.256Z,5.00
2019-03-19T05:01:14.833Z,4.77
2019-03-19T05:03:45.446Z,4.73
2019-03-19T05:06:15.935Z,4.50
2019-03-19T05:08:46.600Z,4.67
2019-03-19T05:11:17.279Z,4.07
2019-03-19T05:13:47.864Z,4.17
2019-03-19T05:16:18.519Z,4.97
2019-03-19T05:18:49.020Z,3.90
2019-03-19T05:21:19.827Z,4.27
2019-03-19T05:23:50.343Z,4.73
2019-03-19T05:26:21.017Z,4.20
2019-03-19T05:28:53.027Z,3.53
2019-03-19T05:31:24.096Z,4.37
2019-03-19T05:33:56.397Z,13.63
2019-03-19T05:36:26.855Z,31.50
2019-03-19T05:38:57.426Z,17.63
2019-03-19T05:41:28.027Z,19.20
2019-03-19T05:43:58.762Z,14.87
2019-03-19T05:46:29.314Z,10.33
2019-03-19T05:49:00.030Z,8.73
2019-03-19T05:51:30.382Z,5.73
2019-03-19T05:54:01.033Z,4.10
2019-03-19T05:56:31.857Z,3.87
2019-03-19T05:59:02.460Z,3.50
2019-03-19T06:01:32.910Z,3.17
2019-03-19T06:04:03.503Z,3.80
2019-03-19T06:06:34.214Z,2.90
2019-03-19T06:09:05.237Z,3.27
2019-03-19T06:11:35.695Z,2.97
2019-03-19T06:14:06.207Z,3.47
2019-03-19T06:16:36.929Z,3.60
2019-03-19T06:19:07.354Z,3.93
2019-03-19T06:21:37.838Z,4.20
2019-03-19T06:24:08.556Z,4.00
2019-03-19T06:26:39.153Z,3.50
2019-03-19T06:29:09.864Z,3.87
2019-03-19T06:31:40.242Z,4.20
2019-03-19T06:34:11.003Z,4.53
2019-03-19T06:36:41.360Z,5.23
2019-03-19T06:39:12.026Z,4.90
2019-03-19T06:41:42.819Z,3.70
2019-03-19T06:44:13.535Z,4.33
2019-03-19T06:46:44.017Z,3.77
2019-03-19T06:49:14.854Z,3.87
2019-03-19T06:51:45.695Z,3.40
2019-03-19T06:54:16.293Z,4.23
2019-03-19T06:56:46.813Z,4.40
2019-03-19T06:59:17.201Z,4.60
2019-03-19T07:01:47.615Z,4.07
2019-03-19T07:04:19.490Z,3.97
2019-03-19T07:06:50.100Z,4.40
2019-03-19T07:09:20.622Z,4.50
2019-03-19T07:11:51.105Z,4.20
2019-03-19T07:14:21.792Z,4.47
2019-03-19T07:16:52.811Z,4.83
2019-03-19T07:19:23.570Z,4.83
2019-03-19T07:21:53.982Z,4.73
2019-03-19T07:24:24.282Z,5.10
2019-03-19T07:26:54.885Z,4.37
2019-03-19T07:29:26.183Z,4.67
2019-03-19T07:31:56.725Z,4.50
2019-03-19T07:34:27.300Z,4.53
2019-03-19T07:36:57.829Z,5.07
2019-03-19T07:39:28.460Z,5.07
2019-03-19T07:41:59.162Z,4.20
2019-03-19T07:44:29.441Z,5.03
2019-03-19T07:47:00.012Z,5.30
2019-03-19T07:49:30.515Z,4.90
2019-03-19T07:52:01.152Z,5.67
2019-03-19T07:54:31.557Z,5.17
2019-03-19T07:57:02.108Z,4.90
2019-03-19T07:59:32.732Z,5.03
2019-03-19T08:02:03.360Z,5.20
2019-03-19T08:04:33.717Z,4.50
2019-03-19T08:07:04.214Z,4.70
2019-03-19T08:09:34.760Z,4.47
2019-03-19T08:12:05.396Z,5.13
2019-03-19T08:14:35.473Z,4.93
2019-03-19T08:17:06.056Z,4.77
2019-03-19T08:19:36.538Z,4.60
2019-03-19T08:22:07.233Z,5.20
2019-03-19T08:24:37.784Z,4.60
2019-03-19T08:27:08.397Z,5.03
2019-03-19T08:29:38.799Z,5.67
2019-03-19T08:32:09.255Z,5.07
2019-03-19T08:34:40.162Z,4.87
2019-03-19T08:37:10.646Z,4.83
2019-03-19T08:39:40.937Z,4.43
2019-03-19T08:42:11.493Z,4.73
2019-03-19T08:44:41.941Z,5.13
2019-03-19T08:47:12.524Z,4.72
2019-03-19T08:49:42.878Z,4.90
2019-03-19T08:52:13.301Z,5.05
2019-03-19T08:54:43.634Z,5.22
2019-03-19T08:57:14.304Z,4.70
2019-03-19T08:59:44.762Z,5.12
2019-03-19T09:02:15.442Z,4.67
2019-03-19T09:04:46.164Z,4.90
2019-03-19T09:07:16.764Z,4.65
2019-03-19T09:09:47.074Z,4.78
2019-03-19T09:12:17.712Z,4.80
2019-03-19T09:14:48.244Z,4.95
2019-03-19T09:17:18.803Z,4.75
2019-03-19T09:19:49.405Z,4.53
2019-03-19T09:22:19.940Z,4.75
2019-03-19T09:24:50.226Z,5.12
2019-03-19T09:27:20.701Z,5.40
2019-03-19T09:29:51.178Z,5.25
2019-03-19T09:32:21.963Z,5.20
2019-03-19T09:34:52.562Z,5.08
2019-03-19T09:37:23.181Z,4.78
2019-03-19T09:39:53.522Z,4.47
2019-03-19T09:42:23.868Z,4.55
2019-03-19T09:44:58.389Z,4.25
2019-03-19T09:47:26.605Z,4.53
2019-03-19T09:49:57.117Z,4.08
2019-03-19T09:52:27.559Z,4.47
2019-03-19T09:54:58.357Z,5.10
2019-03-19T09:57:28.820Z,4.22
2019-03-19T09:59:59.097Z,4.33
2019-03-19T10:02:29.453Z,4.85
2019-03-19T10:05:00.044Z,5.28
2019-03-19T10:07:30.460Z,4.85
2019-03-19T10:10:00.825Z,4.95
2019-03-19T10:12:31.343Z,4.90
2019-03-19T10:15:02.065Z,5.08
2019-03-19T10:17:32.560Z,4.58
2019-03-19T10:20:03.131Z,4.78
2019-03-19T10:22:33.497Z,4.80
2019-03-19T10:25:04.212Z,4.72
2019-03-19T10:27:34.995Z,4.92
2019-03-19T10:30:06.370Z,4.75
2019-03-19T10:32:36.698Z,4.53
2019-03-19T10:35:09.670Z,4.47
2019-03-19T10:37:40.072Z,4.87
2019-03-19T10:40:12.214Z,6.28
2019-03-19T10:42:42.800Z,5.35
2019-03-19T10:45:13.603Z,5.50
2019-03-19T10:47:44.097Z,4.87
2019-03-19T10:50:19.635Z,7.12
2019-03-19T10:52:50.381Z,7.35
2019-03-19T10:55:21.160Z,9.95
2019-03-19T10:57:51.885Z,9.73
2019-03-19T11:00:23.256Z,5.10
2019-03-19T11:02:53.988Z,7.15
2019-03-19T11:05:24.728Z,5.80
2019-03-19T11:07:55.329Z,4.75
2019-03-19T11:10:28.396Z,5.33
2019-03-19T11:12:59.115Z,4.72
2019-03-19T11:15:31.676Z,4.95
2019-03-19T11:18:01.940Z,5.72
2019-03-19T11:20:32.642Z,5.00
2019-03-19T11:23:03.270Z,4.80
2019-03-19T11:25:33.968Z,4.92
2019-03-19T11:28:04.372Z,8.78
2019-03-19T11:30:34.997Z,13.00
2019-03-19T11:33:05.538Z,10.38
2019-03-19T11:35:35.843Z,6.92
2019-03-19T11:38:06.563Z,6.95
2019-03-19T11:40:37.135Z,6.00
2019-03-19T11:43:07.803Z,4.97
2019-03-19T11:45:38.373Z,4.58
2019-03-19T11:48:09.092Z,5.37
2019-03-19T11:50:39.489Z,5.15
2019-03-19T11:53:10.249Z,4.90
2019-03-19T11:55:40.916Z,5.45
2019-03-19T11:58:11.430Z,5.08
2019-03-19T12:00:46.378Z,5.35
2019-03-19T12:03:17.213Z,5.08
2019-03-19T12:05:47.947Z,5.28
2019-03-19T12:08:18.480Z,4.75
2019-03-19T12:10:48.833Z,4.80
2019-03-19T12:13:19.526Z,4.80
2019-03-19T12:15:50.026Z,5.22
2019-03-19T12:18:20.534Z,8.23
2019-03-19T12:20:50.998Z,19.02
2019-03-19T12:23:21.605Z,5.78
2019-03-19T12:25:51.965Z,7.85
2019-03-19T12:28:22.297Z,6.37
2019-03-19T12:30:54.841Z,5.10
2019-03-19T12:33:25.219Z,5.03
2019-03-19T12:35:57.801Z,5.20
2019-03-19T12:38:27.949Z,4.72
2019-03-19T12:40:58.281Z,5.20
2019-03-19T12:43:28.825Z,5.33
2019-03-19T12:45:59.254Z,5.30
2019-03-19T12:48:29.496Z,5.30
2019-03-19T12:50:59.901Z,4.97
2019-03-19T12:53:30.564Z,4.97
2019-03-19T12:56:01.774Z,5.25
2019-03-19T12:58:32.240Z,5.05
2019-03-19T13:01:02.867Z,4.90
2019-03-19T13:03:33.087Z,4.97
2019-03-19T13:06:03.830Z,5.97
2019-03-19T13:08:34.619Z,5.70
2019-03-19T13:11:05.082Z,5.20
2019-03-19T13:13:35.576Z,5.30
2019-03-19T13:16:06.022Z,4.77
2019-03-19T13:18:36.487Z,5.40
2019-03-19T13:21:06.901Z,5.17
2019-03-19T13:23:37.313Z,5.30
2019-03-19T13:26:07.702Z,5.20
2019-03-19T13:28:38.035Z,4.60
2019-03-19T13:31:08.443Z,4.83
2019-03-19T13:33:38.812Z,4.80
2019-03-19T13:36:09.502Z,4.87
2019-03-19T13:38:40.079Z,4.60
2019-03-19T13:41:10.781Z,6.47
2019-03-19T13:43:41.547Z,4.93
2019-03-19T13:46:12.026Z,6.50
2019-03-19T13:48:42.703Z,4.90
2019-03-19T13:51:13.241Z,4.57
2019-03-19T13:53:44.106Z,4.63
2019-03-19T13:56:14.492Z,5.37
2019-03-19T13:58:44.871Z,4.60
2019-03-19T14:01:15.506Z,4.80
2019-03-19T14:03:46.080Z,4.93
2019-03-19T14:06:16.565Z,4.80
2019-03-19T14:08:47.261Z,5.30
2019-03-19T14:11:20.536Z,4.73
2019-03-19T14:13:51.381Z,4.87
2019-03-19T14:16:21.950Z,4.47
2019-03-19T14:18:52.625Z,5.03
2019-03-19T14:21:23.370Z,5.10
2019-03-19T14:23:53.739Z,5.23
2019-03-19T14:26:24.413Z,4.80
2019-03-19T14:28:54.998Z,5.23
2019-03-19T14:31:25.430Z,5.10
2019-03-19T14:33:55.753Z,4.80
2019-03-19T14:36:26.298Z,9.07
2019-03-19T14:38:56.720Z,7.97
2019-03-19T14:41:27.449Z,5.73
2019-03-19T14:43:57.798Z,5.37
2019-03-19T14:46:28.423Z,4.80
2019-03-19T14:48:59.156Z,4.90
2019-03-19T14:51:29.509Z,5.43
2019-03-19T14:53:59.950Z,5.47
2019-03-19T14:56:30.733Z,5.00
2019-03-19T14:59:01.281Z,6.20
2019-03-19T15:01:31.773Z,6.77
2019-03-19T15:04:02.284Z,10.03
2019-03-19T15:06:32.717Z,30.50
2019-03-19T15:09:03.364Z,38.47
2019-03-19T15:11:33.837Z,60.13
2019-03-19T15:14:04.303Z,66.10
2019-03-19T15:16:34.849Z,34.33
2019-03-19T15:19:05.302Z,13.23
2019-03-19T15:21:35.689Z,5.73
2019-03-19T15:24:06.327Z,5.33
2019-03-19T15:26:36.899Z,6.13
2019-03-19T15:29:07.381Z,5.20
2019-03-19T15:31:38.213Z,5.73
2019-03-19T15:34:09.093Z,5.70
2019-03-19T15:36:39.573Z,7.07
2019-03-19T15:39:10.603Z,6.40
2019-03-19T15:41:41.108Z,6.60
2019-03-19T15:44:11.873Z,6.20
2019-03-19T15:46:42.420Z,5.50
2019-03-19T15:49:12.902Z,5.70
2019-03-19T15:51:43.542Z,6.50
2019-03-19T15:54:14.201Z,6.10
2019-03-19T15:56:44.622Z,5.07
2019-03-19T15:59:14.802Z,5.53
2019-03-19T16:01:45.155Z,4.70
2019-03-19T16:04:15.710Z,14.70
2019-03-19T16:06:46.121Z,10.40
2019-03-19T16:09:16.797Z,8.30
2019-03-19T16:11:47.794Z,9.60
2019-03-19T16:14:18.752Z,31.30
2019-03-19T16:16:49.284Z,44.37
2019-03-19T16:19:19.994Z,38.70
2019-03-19T16:21:50.771Z,28.23
2019-03-19T16:24:21.251Z,18.80
2019-03-19T16:26:52.066Z,17.33
2019-03-19T16:29:22.735Z,20.30
2019-03-19T16:31:53.421Z,18.87
2019-03-19T16:34:24.007Z,17.80
2019-03-19T16:36:54.791Z,11.90
2019-03-19T16:39:25.427Z,9.67
2019-03-19T16:41:56.102Z,8.87
2019-03-19T16:44:26.536Z,8.67
2019-03-19T16:46:57.199Z,7.93
2019-03-19T16:49:27.888Z,17.03
2019-03-19T16:51:58.392Z,14.70
2019-03-19T16:54:28.982Z,15.03
2019-03-19T16:56:59.511Z,8.30
2019-03-19T16:59:30.027Z,17.10
2019-03-19T17:02:01.671Z,14.43
2019-03-19T17:04:32.867Z,13.10
2019-03-19T17:07:03.583Z,9.43
2019-03-19T17:09:33.976Z,7.50
2019-03-19T17:12:04.561Z,7.53
2019-03-19T17:14:35.048Z,5.90
2019-03-19T17:17:05.687Z,7.30
2019-03-19T17:19:36.155Z,5.63
2019-03-19T17:22:06.978Z,13.17
2019-03-19T17:24:37.445Z,5.30
2019-03-19T17:27:07.772Z,6.80
2019-03-19T17:29:38.298Z,11.03
2019-03-19T17:32:12.799Z,13.03
2019-03-19T17:34:41.036Z,6.23
2019-03-19T17:37:11.655Z,9.27
2019-03-19T17:39:42.411Z,6.47
2019-03-19T17:42:13.107Z,15.27
2019-03-19T17:44:43.613Z,10.40
2019-03-19T17:47:14.447Z,6.20
2019-03-19T17:49:46.778Z,6.77
2019-03-19T17:52:17.217Z,12.63
2019-03-19T17:54:47.595Z,11.67
2019-03-19T17:57:18.250Z,14.20
2019-03-19T17:59:48.894Z,16.03
2019-03-19T18:02:23.852Z,15.07
2019-03-19T18:04:51.639Z,7.83
2019-03-19T18:07:22.911Z,8.10
2019-03-19T18:09:53.422Z,6.67
2019-03-19T18:12:24.101Z,8.87
2019-03-19T18:14:54.609Z,11.13
2019-03-19T18:17:25.609Z,9.83
2019-03-19T18:19:56.278Z,8.30
2019-03-19T18:22:32.162Z,6.70
2019-03-19T18:25:03.325Z,6.47
2019-03-19T18:27:34.666Z,7.00
2019-03-19T18:30:06.887Z,6.10
2019-03-19T18:32:37.742Z,5.90
2019-03-19T18:35:08.722Z,6.53
2019-03-19T18:37:41.946Z,7.13
2019-03-19T18:40:12.718Z,6.93
2019-03-19T18:42:43.380Z,5.27
2019-03-19T18:45:13.891Z,5.87
2019-03-19T18:47:44.472Z,5.10
2019-03-19T18:50:17.810Z,5.97
2019-03-19T18:52:48.514Z,6.57
2019-03-19T18:55:19.410Z,6.93
2019-03-19T18:57:49.947Z,8.70
2019-03-19T19:00:23.581Z,9.33
2019-03-19T19:02:55.931Z,8.70
2019-03-19T19:05:26.921Z,8.30
2019-03-19T19:07:58.806Z,7.73
2019-03-19T19:10:29.572Z,10.30
2019-03-19T19:13:00.488Z,9.93
2019-03-19T19:15:31.324Z,9.60
2019-03-19T19:18:02.121Z,15.03
2019-03-19T19:20:32.709Z,9.60
2019-03-19T19:23:03.148Z,8.37
2019-03-19T19:25:33.758Z,9.10
2019-03-19T19:28:04.314Z,8.23
2019-03-19T19:30:35.863Z,6.33
2019-03-19T19:33:06.697Z,6.00
2019-03-19T19:35:37.529Z,6.00
2019-03-19T19:38:10.693Z,12.93
2019-03-19T19:40:43.347Z,7.70
2019-03-19T19:43:13.866Z,6.83
2019-03-19T19:45:45.817Z,8.33
2019-03-19T19:48:16.437Z,9.13
2019-03-19T19:50:47.442Z,8.70
2019-03-19T19:53:18.089Z,8.90
2019-03-19T19:55:51.798Z,8.30
2019-03-19T19:58:22.405Z,9.83
2019-03-19T20:00:53.920Z,7.60
2019-03-19T20:03:24.335Z,7.40
2019-03-19T20:05:55.407Z,8.33
2019-03-19T20:08:25.869Z,7.57
2019-03-19T20:10:56.558Z,8.23
2019-03-19T20:13:28.551Z,8.67
2019-03-19T20:16:00.379Z,7.03
2019-03-19T20:18:32.482Z,6.57
2019-03-19T20:21:03.092Z,5.80
2019-03-19T20:23:33.916Z,5.20
2019-03-19T20:26:04.551Z,5.20
2019-03-19T20:28:35.466Z,5.20
2019-03-19T20:31:06.221Z,6.33
2019-03-19T20:33:36.861Z,5.50
2019-03-19T20:36:07.584Z,5.30
2019-03-19T20:38:38.146Z,5.47
2019-03-19T20:41:08.748Z,5.20
2019-03-19T20:43:39.220Z,4.63
2019-03-19T20:46:09.713Z,4.30
2019-03-19T20:48:40.460Z,4.23
2019-03-19T20:51:11.206Z,5.00
2019-03-19T20:53:43.150Z,4.20
2019-03-19T20:56:15.003Z,4.17
2019-03-19T20:58:45.841Z,4.00
2019-03-19T21:01:16.594Z,5.03
2019-03-19T21:03:47.182Z,4.00
2019-03-19T21:06:17.853Z,4.13
2019-03-19T21:08:48.709Z,3.63
2019-03-19T21:11:19.662Z,4.10
2019-03-19T21:13:50.272Z,3.80
2019-03-19T21:16:21.350Z,3.13
2019-03-19T21:18:53.748Z,3.50
2019-03-19T21:21:26.137Z,3.63
2019-03-19T21:23:57.054Z,3.37
2019-03-19T21:26:27.736Z,3.27
2019-03-19T21:28:58.840Z,3.30
2019-03-19T21:31:29.797Z,3.20
2019-03-19T21:34:00.382Z,2.50
2019-03-19T21:36:32.763Z,2.60
2019-03-19T21:39:04.684Z,2.60
2019-03-19T21:41:36.258Z,3.20
2019-03-19T21:44:06.723Z,2.87
2019-03-19T21:46:37.554Z,2.90
2019-03-19T21:49:10.753Z,3.20
2019-03-19T21:51:40.448Z,2.53
2019-03-19T21:54:11.001Z,3.00
2019-03-19T21:56:41.567Z,3.00
2019-03-19T21:59:12.253Z,3.13
2019-03-19T22:01:42.788Z,3.17
2019-03-19T22:04:13.458Z,3.43
2019-03-19T22:06:44.264Z,3.40
2019-03-19T22:09:14.964Z,3.27
2019-03-19T22:11:45.583Z,3.27
2019-03-19T22:14:16.155Z,3.27
2019-03-19T22:16:47.091Z,3.40
2019-03-19T22:19:19.013Z,3.20
2019-03-19T22:21:49.718Z,3.13
2019-03-19T22:24:20.436Z,2.70
2019-03-19T22:26:51.009Z,2.87
2019-03-19T22:29:21.780Z,3.20
2019-03-19T22:31:54.361Z,2.80
2019-03-19T22:34:24.621Z,3.00
2019-03-19T22:36:55.383Z,2.87
2019-03-19T22:39:26.147Z,3.00
2019-03-19T22:41:59.289Z,3.00
2019-03-19T22:44:29.597Z,3.50
2019-03-19T22:47:00.390Z,3.60
2019-03-19T22:49:36.421Z,3.53
2019-03-19T22:52:07.350Z,4.00
2019-03-19T22:54:37.906Z,3.97
2019-03-19T22:57:08.412Z,4.43
2019-03-19T22:59:39.235Z,3.67
2019-03-19T23:02:09.711Z,4.57
2019-03-19T23:04:40.305Z,4.37
2019-03-19T23:07:13.983Z,4.50
2019-03-19T23:09:44.429Z,5.03
2019-03-19T23:12:14.845Z,4.77
2019-03-19T23:14:45.749Z,4.83
2019-03-19T23:17:18.224Z,4.20
2019-03-19T23:19:48.599Z,4.40
2019-03-19T23:22:19.306Z,4.90
2019-03-19T23:24:49.903Z,5.37
2019-03-19T23:27:20.849Z,6.10
2019-03-19T23:29:51.541Z,5.47
2019-03-19T23:32:22.123Z,5.60
2019-03-19T23:34:52.596Z,5.53
2019-03-19T23:37:23.473Z,5.83
2019-03-19T23:39:53.930Z,5.97
2019-03-19T23:42:24.764Z,7.10
2019-03-19T23:44:55.531Z,7.33
2019-03-19T23:47:26.274Z,7.10
2019-03-19T23:49:56.882Z,6.77
2019-03-19T23:52:27.276Z,7.20
2019-03-19T23:54:57.975Z,7.77
2019-03-19T23:57:28.826Z,7.57
2019-03-19T23:59:59.531Z,7.50
